Time;durP1;ratioP1;P1;durP2;ratioP2;P2;SDS_P1;SDS_P2;PMS_P1;PMS_P2;Temp;Humidity;BMP_temperature;BMP_pressure;BME280_temperature;BME280_humidity;BME280_pressure;Samples;Min_cycle;Max_cycle;Signal;HPM_P1;HPM_P2
2022/05/15 00:01:39;;;;;;;;;;;;;;;24.76;21.59;99477.75;5073731;28;19967;-74
2022/05/15 00:04:05;;;;;;;;;;;;;;;24.74;21.64;99471.78;5073721;28;20309;-76
2022/05/15 00:06:30;;;;;;;;;;;;;;;24.76;21.71;99476.94;5073856;28;20359;-74
2022/05/15 00:08:55;;;;;;;;;;;;;;;24.74;21.66;99475.31;5073201;28;19939;-74
2022/05/15 00:11:20;;;;;;;;;;;;;;;24.75;21.58;99476.13;5083135;28;19916;-76
2022/05/15 00:13:46;;;;;;;;;;;;;;;24.76;21.76;99476.94;5093871;28;20353;-74
2022/05/15 00:16:11;;;;;;;;;;;;;;;24.75;21.57;99484.34;5093559;28;19916;-76
2022/05/15 00:18:38;;;;;;;;;;;;;;;24.77;21.57;99479.38;5093854;28;19916;-75
2022/05/15 00:21:03;;;;;;;;;;;;;;;24.77;21.66;99489.47;5093544;28;19927;-75
2022/05/15 00:23:28;;;;;;;;;;;;;;;24.75;21.58;99481.59;5093635;28;19916;-74
2022/05/15 00:25:54;;;;;;;;;;;;;;;24.75;21.54;99492.53;5099974;28;20380;-74
2022/05/15 00:28:19;;;;;;;;;;;;;;;24.75;21.60;99492.53;5114723;28;19923;-74
2022/05/15 00:30:44;;;;;;;;;;;;;;;24.75;21.56;99487.06;5114145;28;20490;-76
2022/05/15 00:33:10;;;;;;;;;;;;;;;24.75;21.59;99489.81;5115072;28;19915;-74
2022/05/15 00:35:35;;;;;;;;;;;;;;;24.74;21.73;99497.16;5117617;28;19916;-75
2022/05/15 00:38:01;;;;;;;;;;;;;;;24.75;21.67;99492.53;5118020;28;19916;-74
2022/05/15 00:40:26;;;;;;;;;;;;;;;24.77;21.66;99489.47;5117644;28;19915;-75
2022/05/15 00:42:51;;;;;;;;;;;;;;;24.75;21.38;99489.81;5117746;28;20417;-75
2022/05/15 00:45:17;;;;;;;;;;;;;;;24.75;21.56;99492.53;5117757;28;19915;-74
2022/05/15 00:47:43;;;;;;;;;;;;;;;24.75;21.56;99495.28;5117214;28;19916;-75
2022/05/15 00:50:09;;;;;;;;;;;;;;;24.74;21.45;99493.63;5117363;28;19923;-73
2022/05/15 00:52:35;;;;;;;;;;;;;;;24.74;21.43;99496.38;5117992;28;19965;-73
2022/05/15 00:55:03;;;;;;;;;;;;;;;24.74;21.42;99499.09;5116980;28;19919;-76
2022/05/15 00:57:29;;;;;;;;;;;;;;;24.74;21.42;99496.38;5117567;28;19923;-73
2022/05/15 00:59:57;;;;;;;;;;;;;;;24.74;21.33;99502.63;5117471;28;19916;-75
2022/05/15 01:02:23;;;;;;;;;;;;;;;24.74;21.43;99507.28;5117424;28;20387;-74
2022/05/15 01:04:48;;;;;;;;;;;;;;;24.74;21.34;99504.56;5117399;28;20008;-74
2022/05/15 01:07:13;;;;;;;;;;;;;;;24.74;21.40;99501.84;5117120;28;19923;-74
2022/05/15 01:09:38;;;;;;;;;;;;;;;24.73;21.25;99501.03;5117388;28;19922;-74
2022/05/15 01:12:04;;;;;;;;;;;;;;;24.72;21.50;99504.88;5117130;28;20358;-75
2022/05/15 01:14:31;;;;;;;;;;;;;;;24.73;21.51;99511.13;5116892;28;19958;-76
2022/05/15 01:16:56;;;;;;;;;;;;;;;24.73;21.27;99505.66;5117401;28;19915;-74
2022/05/15 01:19:32;;;;;;;;;;;;;;;24.74;21.24;99512.75;5116820;28;20408;-75
2022/05/15 01:21:57;;;;;;;;;;;;;;;24.73;21.25;99516.59;5118091;28;19916;-74
2022/05/15 01:24:23;;;;;;;;;;;;;;;24.72;21.27;99509.53;5117056;28;19920;-75
2022/05/15 01:26:48;;;;;;;;;;;;;;;24.73;21.18;99509.22;5116379;28;20290;-74
2022/05/15 01:29:13;;;;;;;;;;;;;;;24.72;21.43;99512.25;5116950;28;20049;-76
2022/05/15 01:31:38;;;;;;;;;;;;;;;24.71;21.17;99508.69;5116537;28;20278;-74
2022/05/15 01:34:06;;;;;;;;;;;;;;;24.72;21.30;99515.00;5117370;28;19920;-76
2022/05/15 01:36:31;;;;;;;;;;;;;;;24.71;21.19;99518.81;5116496;28;20366;-74
2022/05/15 01:38:56;;;;;;;;;;;;;;;24.72;21.01;99517.72;5116695;28;19916;-74
2022/05/15 01:41:22;;;;;;;;;;;;;;;24.72;21.31;99515.78;5116614;28;20251;-76
2022/05/15 01:43:49;;;;;;;;;;;;;;;24.72;21.01;99520.47;5116636;28;20362;-73
2022/05/15 01:46:14;;;;;;;;;;;;;;;24.71;20.99;99519.63;5115760;28;20032;-75
2022/05/15 01:48:40;;;;;;;;;;;;;;;24.73;21.03;99522.06;5116172;28;20370;-74
2022/05/15 01:51:05;;;;;;;;;;;;;;;24.71;21.04;99525.09;5116226;28;19919;-74
2022/05/15 01:53:30;;;;;;;;;;;;;;;24.72;21.01;99525.91;5116357;28;19919;-75
2022/05/15 01:55:55;;;;;;;;;;;;;;;24.72;20.87;99525.91;5116071;28;19916;-75
2022/05/15 01:58:21;;;;;;;;;;;;;;;24.72;21.04;99520.47;5115936;28;19915;-75
2022/05/15 02:00:46;;;;;;;;;;;;;;;24.70;21.07;99518.03;5116217;28;19988;-75
2022/05/15 02:03:12;;;;;;;;;;;;;;;24.71;20.86;99524.28;5115876;28;19915;-75
2022/05/15 02:05:37;;;;;;;;;;;;;;;24.70;20.79;99522.69;5116241;28;19976;-74
2022/05/15 02:08:02;;;;;;;;;;;;;;;24.71;20.84;99521.56;5115850;28;19924;-73
2022/05/15 02:10:28;;;;;;;;;;;;;;;24.70;20.80;99523.50;5115259;28;19916;-76
2022/05/15 02:12:54;;;;;;;;;;;;;;;24.70;20.94;99523.50;5077728;28;19920;-73
2022/05/15 02:15:19;;;;;;;;;;;;;;;24.69;20.91;99532.78;5095319;28;20325;-75
2022/05/15 02:17:44;;;;;;;;;;;;;;;24.70;20.92;99537.16;5095471;28;19923;-74
2022/05/15 02:20:10;;;;;;;;;;;;;;;24.71;20.65;99536.03;5095469;28;20317;-74
2022/05/15 02:22:36;;;;;;;;;;;;;;;24.70;20.84;99530.88;5095161;28;20378;-74
2022/05/15 02:25:01;;;;;;;;;;;;;;;24.69;20.69;99532.78;5095400;28;20057;-75
2022/05/15 02:27:26;;;;;;;;;;;;;;;24.70;20.53;99536.34;5094949;28;19920;-76
2022/05/15 02:29:52;;;;;;;;;;;;;;;24.70;20.56;99539.09;5095355;28;19931;-74
2022/05/15 02:32:17;;;;;;;;;;;;;;;24.70;20.49;99539.09;5095224;28;20347;-74
2022/05/15 02:34:42;;;;;;;;;;;;;;;24.69;20.75;99546.44;5095296;28;20033;-74
2022/05/15 02:37:07;;;;;;;;;;;;;;;24.70;20.62;99539.09;5095157;28;19920;-74
2022/05/15 02:39:33;;;;;;;;;;;;;;;24.70;20.55;99533.63;5095141;28;19920;-77
2022/05/15 02:42:01;;;;;;;;;;;;;;;24.69;20.34;99540.97;5094744;28;19920;-74
2022/05/15 02:44:26;;;;;;;;;;;;;;;24.70;20.60;99542.63;5095136;28;19939;-74
2022/05/15 02:46:52;;;;;;;;;;;;;;;24.70;20.74;99552.75;5094986;28;19939;-73
2022/05/15 02:52:01;;;;;;;;;;;;;;;24.68;20.50;99554.94;5095357;28;19923;-74
2022/05/15 02:54:26;;;;;;;;;;;;;;;24.69;20.48;99553.84;5094692;28;19924;-77
2022/05/15 02:56:51;;;;;;;;;;;;;;;24.68;20.42;99555.78;5094468;28;19916;-74
2022/05/15 02:59:17;;;;;;;;;;;;;;;24.69;20.49;99553.84;5094911;28;20006;-76
2022/05/15 03:01:42;;;;;;;;;;;;;;;24.69;20.63;99562.03;5094646;28;20365;-74
2022/05/15 03:04:07;;;;;;;;;;;;;;;24.70;20.53;99561.75;5094725;28;19916;-74
2022/05/15 03:06:32;;;;;;;;;;;;;;;24.70;20.32;99566.41;5094257;28;19920;-74
2022/05/15 03:08:58;;;;;;;;;;;;;;;24.69;20.48;99560.09;5094585;28;19920;-74
2022/05/15 03:11:23;;;;;;;;;;;;;;;24.69;20.61;99560.09;5102081;28;19942;-75
2022/05/15 03:13:49;;;;;;;;;;;;;;;24.69;20.62;99559.31;5114583;28;20370;-74
2022/05/15 03:16:15;;;;;;;;;;;;;;;24.68;20.52;99563.13;5114416;28;19923;-75
2022/05/15 03:18:42;;;;;;;;;;;;;;;24.68;20.63;99565.88;5114571;28;20020;-75
2022/05/15 03:21:08;;;;;;;;;;;;;;;24.68;20.27;99572.16;5114843;28;19916;-73
2022/05/15 03:23:33;;;;;;;;;;;;;;;24.69;20.43;99572.97;5114512;28;20057;-74
2022/05/15 03:25:58;;;;;;;;;;;;;;;24.69;20.59;99570.22;5114449;28;19920;-74
2022/05/15 03:28:23;;;;;;;;;;;;;;;24.68;20.58;99574.06;5114372;28;19916;-75
2022/05/15 03:30:48;;;;;;;;;;;;;;;24.67;20.63;99567.00;5114413;28;19916;-76
2022/05/15 03:33:15;;;;;;;;;;;;;;;24.68;20.53;99568.59;5114730;28;20393;-74
2022/05/15 03:35:40;;;;;;;;;;;;;;;24.67;20.56;99569.72;5114275;28;19915;-74
2022/05/15 03:38:06;;;;;;;;;;;;;;;24.68;20.45;99565.88;5114281;28;19923;-74
2022/05/15 03:40:31;;;;;;;;;;;;;;;24.68;20.42;99572.16;5114150;28;20362;-75
2022/05/15 03:42:57;;;;;;;;;;;;;;;24.69;20.62;99581.16;5114241;28;19923;-75
2022/05/15 03:45:22;;;;;;;;;;;;;;;24.69;20.67;99581.16;5114490;28;19916;-73
2022/05/15 03:47:48;;;;;;;;;;;;;;;24.68;20.42;99577.63;5114446;28;20373;-75
2022/05/15 03:50:14;;;;;;;;;;;;;;;24.68;20.82;99580.34;5114436;28;19920;-74
2022/05/15 03:52:39;;;;;;;;;;;;;;;24.67;20.49;99578.72;5115059;28;20373;-74
2022/05/15 03:55:05;;;;;;;;;;;;;;;24.69;20.65;99581.16;5114437;28;19923;-77
2022/05/15 03:57:30;;;;;;;;;;;;;;;24.70;20.61;99582.78;5114169;28;20432;-75
2022/05/15 03:59:55;;;;;;;;;;;;;;;24.70;20.51;99580.06;5114450;28;19942;-76
2022/05/15 04:02:21;;;;;;;;;;;;;;;24.70;20.51;99588.25;5113990;28;20358;-74
2022/05/15 04:04:46;;;;;;;;;;;;;;;24.70;20.78;99582.78;5114032;28;19916;-74
2022/05/15 04:07:11;;;;;;;;;;;;;;;24.69;20.81;99592.09;5114248;28;19970;-76
2022/05/15 04:09:40;;;;;;;;;;;;;;;24.69;20.93;99595.63;5117966;28;20015;-74
2022/05/15 04:12:06;;;;;;;;;;;;;;;24.68;20.80;99591.28;5106096;28;19918;-75
2022/05/15 04:14:31;;;;;;;;;;;;;;;24.69;20.75;99597.56;5097983;28;20346;-74
2022/05/15 04:16:57;;;;;;;;;;;;;;;24.69;20.88;99600.28;5097942;28;20266;-75
2022/05/15 04:19:22;;;;;;;;;;;;;;;24.70;21.11;99604.66;5097944;28;19916;-75
2022/05/15 04:21:47;;;;;;;;;;;;;;;24.70;21.00;99604.66;5097666;28;20366;-74
2022/05/15 04:24:13;;;;;;;;;;;;;;;24.70;20.69;99602.72;5097421;28;19973;-75
2022/05/15 04:26:38;;;;;;;;;;;;;;;24.71;20.77;99598.06;5097714;28;19920;-76
2022/05/15 04:29:04;;;;;;;;;;;;;;;24.70;21.07;99600.00;5097690;28;19916;-74
2022/05/15 04:31:29;;;;;;;;;;;;;;;24.71;21.07;99598.06;5097580;28;19916;-76
2022/05/15 04:33:54;;;;;;;;;;;;;;;24.71;20.91;99606.25;5097562;28;19916;-74
2022/05/15 04:36:20;;;;;;;;;;;;;;;24.72;20.84;99602.41;5097592;28;20278;-73
2022/05/15 04:38:45;;;;;;;;;;;;;;;24.71;20.94;99600.78;5097483;28;19917;-75
2022/05/15 04:41:10;;;;;;;;;;;;;;;24.72;20.93;99599.69;5097107;28;20358;-73
2022/05/15 04:43:35;;;;;;;;;;;;;;;24.72;21.08;99607.88;5097291;28;19916;-74
2022/05/15 04:46:03;;;;;;;;;;;;;;;24.71;20.84;99595.31;5097396;28;19920;-74
2022/05/15 04:48:28;;;;;;;;;;;;;;;24.71;20.90;99596.13;5097303;28;19946;-74
2022/05/15 04:50:54;;;;;;;;;;;;;;;24.72;20.86;99599.69;5097192;28;20496;-76
2022/05/15 04:53:19;;;;;;;;;;;;;;;24.73;20.97;99601.28;5097400;28;20363;-73
2022/05/15 04:55:44;;;;;;;;;;;;;;;24.73;20.92;99601.28;5096868;28;19986;-75
2022/05/15 04:58:09;;;;;;;;;;;;;;;24.74;21.18;99611.13;5097399;28;19917;-74
2022/05/15 05:00:35;;;;;;;;;;;;;;;24.72;20.98;99610.63;5096686;28;20118;-74
2022/05/15 05:03:00;;;;;;;;;;;;;;;24.72;21.17;99607.88;5096664;28;19924;-76
2022/05/15 05:05:25;;;;;;;;;;;;;;;24.73;21.14;99606.75;5097033;28;19927;-74
2022/05/15 05:07:50;;;;;;;;;;;;;;;24.73;20.88;99606.75;5097013;28;20377;-75
2022/05/15 05:10:16;;;;;;;;;;;;;;;24.74;20.96;99600.19;5096886;28;19916;-74
2022/05/15 05:12:41;;;;;;;;;;;;;;;24.74;20.90;99598.25;5112478;28;19915;-75
2022/05/15 05:15:07;;;;;;;;;;;;;;;24.74;20.93;99600.19;5117174;28;19969;-76
2022/05/15 05:17:32;;;;;;;;;;;;;;;24.77;20.95;99593.31;5116838;28;19977;-75
2022/05/15 05:19:57;;;;;;;;;;;;;;;24.76;20.96;99602.63;5115972;28;19916;-75
2022/05/15 05:22:22;;;;;;;;;;;;;;;24.76;20.91;99603.44;5117018;28;19919;-74
2022/05/15 05:24:48;;;;;;;;;;;;;;;24.79;20.96;99608.28;5117041;28;20358;-74
2022/05/15 05:27:13;;;;;;;;;;;;;;;24.79;21.09;99602.84;5116592;28;20268;-75
2022/05/15 05:29:38;;;;;;;;;;;;;;;24.81;21.06;99606.06;5116544;28;19916;-73
2022/05/15 05:32:03;;;;;;;;;;;;;;;24.84;20.85;99610.13;5116907;28;19920;-74
2022/05/15 05:34:29;;;;;;;;;;;;;;;24.84;21.00;99610.13;5116400;28;20358;-75
2022/05/15 05:36:54;;;;;;;;;;;;;;;24.86;20.80;99614.16;5116861;28;19916;-73
2022/05/15 05:39:20;;;;;;;;;;;;;;;24.87;21.00;99620.44;5098459;28;19927;-75
2022/05/15 05:41:45;;;;;;;;;;;;;;;24.89;20.76;99613.56;5116296;28;19961;-74
2022/05/15 05:44:11;;;;;;;;;;;;;;;24.90;20.90;99617.09;5116462;28;19919;-75
2022/05/15 05:46:36;;;;;;;;;;;;;;;24.90;20.93;99619.84;5116568;28;19915;-74
2022/05/15 05:49:02;;;;;;;;;;;;;;;24.87;20.57;99618.53;5098426;28;20286;-74
2022/05/15 05:51:27;;;;;;;;;;;;;;;24.88;20.57;99625.59;5116461;28;19927;-75
2022/05/15 05:53:53;;;;;;;;;;;;;;;24.91;20.74;99627.75;5097851;28;19917;-74
2022/05/15 05:56:18;;;;;;;;;;;;;;;24.93;20.50;99632.91;5116263;28;19916;-74
2022/05/15 05:58:44;;;;;;;;;;;;;;;24.93;20.63;99630.19;5116500;28;20029;-75
2022/05/15 06:01:10;;;;;;;;;;;;;;;24.93;20.42;99633.72;5115956;28;19920;-73
2022/05/15 06:06:18;;;;;;;;;;;;;;;24.97;20.45;99622.19;5116421;28;19973;-75
2022/05/15 06:08:44;;;;;;;;;;;;;;;24.96;20.35;99626.84;5115865;28;19915;-73
2022/05/15 06:11:09;;;;;;;;;;;;;;;24.99;20.32;99622.69;5114633;28;19951;-76
2022/05/15 06:13:35;;;;;;;;;;;;;;;25.02;20.19;99633.81;5095708;28;19916;-74
2022/05/15 06:16:00;;;;;;;;;;;;;;;24.99;20.31;99626.25;5095361;28;19916;-75
2022/05/15 06:18:25;;;;;;;;;;;;;;;25.02;20.44;99622.88;5095637;28;19927;-76
2022/05/15 06:20:51;;;;;;;;;;;;;;;25.05;20.08;99626.94;5095149;28;19916;-73
2022/05/15 06:23:16;;;;;;;;;;;;;;;25.07;20.11;99631.00;5095513;28;19994;-75
2022/05/15 06:25:42;;;;;;;;;;;;;;;25.08;20.17;99631.81;5094847;28;19920;-74
2022/05/15 06:28:07;;;;;;;;;;;;;;;25.09;19.95;99623.31;5095107;28;19931;-74
2022/05/15 06:30:32;;;;;;;;;;;;;;;25.11;19.92;99625.72;5094830;28;19920;-76
2022/05/15 06:32:59;;;;;;;;;;;;;;;25.10;19.99;99630.38;5095320;28;19974;-75
2022/05/15 06:35:24;;;;;;;;;;;;;;;25.12;20.03;99633.63;5095283;28;19920;-76
2022/05/15 06:37:49;;;;;;;;;;;;;;;25.15;19.97;99637.69;5094883;28;19922;-75
2022/05/15 06:40:14;;;;;;;;;;;;;;;25.14;19.81;99636.06;5095144;28;19916;-74
2022/05/15 06:42:40;;;;;;;;;;;;;;;25.15;19.70;99634.97;5095189;28;19915;-74
2022/05/15 06:45:06;;;;;;;;;;;;;;;25.16;19.81;99633.81;5095138;28;19916;-74
2022/05/15 06:47:32;;;;;;;;;;;;;;;25.15;19.63;99629.50;5094845;28;19962;-76
2022/05/15 06:49:58;;;;;;;;;;;;;;;25.17;19.81;99635.47;5094822;28;19916;-73
2022/05/15 06:52:24;;;;;;;;;;;;;;;25.19;19.71;99641.44;5095012;28;19935;-74
2022/05/15 06:54:49;;;;;;;;;;;;;;;25.20;19.86;99647.69;5094565;28;19917;-75
2022/05/15 06:57:29;;;;;;;;;;;;;;;25.19;19.61;99641.44;5094938;28;19923;-74
2022/05/15 06:59:55;;;;;;;;;;;;;;;25.19;19.55;99644.16;5094859;28;19962;-74
2022/05/15 07:02:21;;;;;;;;;;;;;;;25.19;19.76;99651.56;5094441;28;19923;-76
2022/05/15 07:04:47;;;;;;;;;;;;;;;25.21;19.63;99647.41;5094758;28;19916;-74
2022/05/15 07:07:12;;;;;;;;;;;;;;;25.22;19.49;99646.28;5094362;28;19916;-76
2022/05/15 07:09:37;;;;;;;;;;;;;;;25.22;19.42;99649.03;5094585;28;19916;-74
2022/05/15 07:12:03;;;;;;;;;;;;;;;25.25;19.40;99656.66;5100936;28;20328;-75
2022/05/15 07:14:28;;;;;;;;;;;;;;;25.24;19.54;99652.25;5115410;28;19922;-74
2022/05/15 07:16:54;;;;;;;;;;;;;;;25.25;19.46;99651.19;5114800;28;20382;-74
2022/05/15 07:19:19;;;;;;;;;;;;;;;25.24;19.34;99646.78;5114831;28;20377;-76
2022/05/15 07:21:44;;;;;;;;;;;;;;;25.24;19.55;99646.78;5114676;28;20033;-73
2022/05/15 07:24:10;;;;;;;;;;;;;;;25.25;19.40;99642.13;5114516;28;20007;-75
2022/05/15 07:26:35;;;;;;;;;;;;;;;25.24;19.47;99665.94;5114395;28;19919;-74
2022/05/15 07:29:00;;;;;;;;;;;;;;;25.26;19.30;99660.19;5114727;28;19969;-74
2022/05/15 07:31:26;;;;;;;;;;;;;;;25.28;19.40;99672.47;5114755;28;20361;-75
2022/05/15 07:33:51;;;;;;;;;;;;;;;25.29;19.42;99665.06;5114267;28;19939;-75
2022/05/15 07:36:16;;;;;;;;;;;;;;;25.29;19.51;99667.81;5114673;28;19923;-76
2022/05/15 07:38:42;;;;;;;;;;;;;;;25.30;19.20;99667.50;5114231;28;19939;-75
2022/05/15 07:41:07;;;;;;;;;;;;;;;25.32;19.34;99660.91;5114413;28;19959;-75
2022/05/15 07:43:32;;;;;;;;;;;;;;;25.33;19.13;99676.22;5113299;28;20358;-73
2022/05/15 07:45:58;;;;;;;;;;;;;;;25.33;19.09;99676.22;5114127;28;19916;-74
2022/05/15 07:48:23;;;;;;;;;;;;;;;25.33;19.21;99678.94;5114233;28;19930;-76
2022/05/15 07:50:48;;;;;;;;;;;;;;;25.32;19.20;99674.56;5114346;28;19915;-75
2022/05/15 07:53:16;;;;;;;;;;;;;;;25.34;19.05;99675.09;5114508;28;19973;-75
2022/05/15 07:55:41;;;;;;;;;;;;;;;25.32;18.95;99680.03;5114153;28;20358;-74
2022/05/15 07:58:07;;;;;;;;;;;;;;;25.33;19.04;99671.53;5114379;28;19961;-74
2022/05/15 08:00:32;;;;;;;;;;;;;;;25.32;19.08;99669.09;5114281;28;20358;-77
2022/05/15 08:03:01;;;;;;;;;;;;;;;25.31;19.09;99687.44;5114027;28;19916;-75
2022/05/15 08:08:10;;;;;;;;;;;;;;;25.32;19.07;99683.59;5114032;28;19966;-74
2022/05/15 08:10:36;;;;;;;;;;;;;;;25.33;19.01;99682.47;5114275;28;19923;-75
2022/05/15 08:13:02;;;;;;;;;;;;;;;25.31;18.88;99690.19;5101650;28;19978;-75
2022/05/15 08:15:27;;;;;;;;;;;;;;;25.29;18.94;99695.16;5093548;28;20417;-74
2022/05/15 08:17:53;;;;;;;;;;;;;;;25.28;18.83;99688.88;5093942;28;19978;-75
2022/05/15 08:25:46;;;;;;;;;;;;;;;25.31;18.79;99714.78;5093442;28;19965;-74
2022/05/15 08:28:11;;;;;;;;;;;;;;;25.30;18.63;99708.53;5093828;28;20018;-75
2022/05/15 08:30:37;;;;;;;;;;;;;;;25.33;18.60;99711.75;5093734;28;19922;-75
2022/05/15 08:33:03;;;;;;;;;;;;;;;25.34;18.30;99713.41;5093740;28;19916;-74
2022/05/15 08:35:29;;;;;;;;;;;;;;;25.35;18.58;99715.81;5093759;28;19916;-75
2022/05/15 08:37:54;;;;;;;;;;;;;;;25.35;18.26;99715.81;5093412;28;19920;-74
2022/05/15 08:40:21;;;;;;;;;;;;;;;25.38;18.27;99717.13;5093594;28;19916;-73
2022/05/15 08:42:50;;;;;;;;;;;;;;;25.39;18.34;99725.03;5075545;28;19920;-76
2022/05/15 08:45:17;;;;;;;;;;;;;;;25.41;18.35;99716.53;5093356;28;19923;-73
2022/05/15 08:47:43;;;;;;;;;;;;;;;25.42;18.19;99718.13;5093259;28;19927;-74
2022/05/15 08:50:10;;;;;;;;;;;;;;;25.41;18.31;99713.81;5093119;28;19916;-74
2022/05/15 08:52:54;;;;;;;;;;;;;;;25.44;18.32;99715.91;5075428;28;19966;-74
2022/05/15 08:55:24;;;;;;;;;;;;;;;25.45;18.12;99717.53;5095955;28;19920;-75
2022/05/15 08:57:52;;;;;;;;;;;;;;;25.44;18.13;99735.06;5097135;28;20003;-76
2022/05/15 09:00:37;;;;;;;;;;;;;;;25.43;18.07;99733.44;5097016;28;19916;-74
2022/05/15 09:03:06;;;;;;;;;;;;;;;25.41;18.28;99722.00;5096809;28;19962;-73
2022/05/15 09:05:31;;;;;;;;;;;;;;;25.42;17.89;99729.06;5097056;28;19916;-75
2022/05/15 09:08:11;;;;;;;;;;;;;;;25.45;17.91;99744.88;5096902;28;20430;-76
2022/05/15 09:10:46;;;;;;;;;;;;;;;25.46;17.95;99738.31;5096897;28;19978;-75
2022/05/15 09:13:24;;;;;;;;;;;;;;;25.45;17.91;99748.44;5078591;28;20366;-73
2022/05/15 09:15:57;;;;;;;;;;;;;;;25.43;17.87;99747.94;5078745;28;19951;-74
2022/05/15 09:18:23;;;;;;;;;;;;;;;25.42;17.86;99743.59;5096842;28;19965;-76
2022/05/15 09:20:48;;;;;;;;;;;;;;;25.45;17.53;99747.63;5096347;28;20366;-74
2022/05/15 09:23:13;;;;;;;;;;;;;;;25.44;17.69;99751.47;5096752;28;19920;-74
2022/05/15 09:25:38;;;;;;;;;;;;;;;25.46;17.64;99752.00;5096405;28;19920;-75
2022/05/15 09:28:05;;;;;;;;;;;;;;;25.45;17.73;99751.16;5096633;28;19916;-75
2022/05/15 09:30:33;;;;;;;;;;;;;;;25.43;17.50;99753.41;5096768;28;19991;-77
2022/05/15 09:32:59;;;;;;;;;;;;;;;25.46;17.61;99754.72;5096581;28;19916;-73
2022/05/15 09:35:35;;;;;;;;;;;;;;;25.44;17.43;99743.25;5096125;28;20400;-77
2022/05/15 09:43:30;;;;;;;;;;;;;;;25.45;17.33;99753.09;5096098;28;20285;-74
2022/05/15 09:43:33;;;;;;;;;;;;;;;25.45;17.50;99753.09;5095941;28;19920;-74
2022/05/15 09:46:05;;;;;;;;;;;;;;;25.48;17.52;99760.69;5096335;28;20003;-75
2022/05/15 09:48:33;;;;;;;;;;;;;;;25.49;17.29;99754.09;5096244;28;19916;-76
2022/05/15 09:50:59;;;;;;;;;;;;;;;25.49;17.37;99765.03;5077764;28;19931;-74
2022/05/15 09:53:38;;;;;;;;;;;;;;;25.46;17.09;99768.41;5078338;28;19916;-75
2022/05/15 09:56:05;;;;;;;;;;;;;;;25.44;17.16;99765.13;5096072;28;19920;-76
2022/05/15 09:58:37;;;;;;;;;;;;;;;25.40;17.35;99769.59;5095509;28;20363;-73
2022/05/15 10:01:21;;;;;;;;;;;;;;;25.39;17.38;99763.34;5095943;28;19937;-73
2022/05/15 10:03:50;;;;;;;;;;;;;;;25.37;17.44;99770.19;5095857;28;20006;-74
2022/05/15 10:06:19;;;;;;;;;;;;;;;25.34;17.50;99763.41;5095259;28;19962;-74
2022/05/15 10:08:44;;;;;;;;;;;;;;;25.33;17.39;99755.53;5095833;28;19948;-75
2022/05/15 10:11:11;;;;;;;;;;;;;;;25.36;17.32;99757.66;5077718;28;20274;-75
2022/05/15 10:13:36;;;;;;;;;;;;;;;25.41;17.17;99760.28;5108215;28;19959;-75
2022/05/15 10:16:17;;;;;;;;;;;;;;;25.40;17.11;99758.66;5115726;28;19915;-74
2022/05/15 10:18:45;;;;;;;;;;;;;;;25.39;17.34;99757.84;5116848;28;19920;-74
2022/05/15 10:21:10;;;;;;;;;;;;;;;25.43;17.09;99752.59;5115798;28;20002;-75
2022/05/15 10:23:43;;;;;;;;;;;;;;;25.46;17.08;99760.19;5097493;28;20396;-73
2022/05/15 10:26:12;;;;;;;;;;;;;;;25.44;16.88;99748.72;5115453;28;19924;-75
2022/05/15 10:28:38;;;;;;;;;;;;;;;25.46;16.79;99746.53;5097661;28;19923;-75
2022/05/15 10:31:18;;;;;;;;;;;;;;;25.46;16.93;99752.00;5115761;28;19922;-74
2022/05/15 10:33:46;;;;;;;;;;;;;;;25.44;17.04;99749.56;5115422;28;20401;-73
2022/05/15 10:36:14;;;;;;;;;;;;;;;25.46;16.97;99752.00;5115385;28;19955;-75
2022/05/15 10:39:05;;;;;;;;;;;;;;;25.47;16.81;99753.59;5115343;28;19961;-74
2022/05/15 10:41:31;;;;;;;;;;;;;;;25.50;16.67;99763.94;5112206;28;19920;-75
2022/05/15 10:43:56;;;;;;;;;;;;;;;25.52;16.91;99767.19;5115266;28;20015;-75
2022/05/15 10:46:45;;;;;;;;;;;;;;;25.53;16.62;99766.09;5115414;28;19923;-76
2022/05/15 10:49:16;;;;;;;;;;;;;;;25.52;16.61;99756.25;5106793;28;19916;-75
2022/05/15 10:51:53;;;;;;;;;;;;;;;25.49;16.53;99756.84;5115432;28;19924;-74
2022/05/15 10:57:29;;;;;;;;;;;;;;;25.48;16.48;99777.13;5099625;28;20335;-75
2022/05/15 11:00:00;;;;;;;;;;;;;;;25.42;16.44;99781.03;5114943;28;20370;-72
2022/05/15 11:02:25;;;;;;;;;;;;;;;25.41;16.65;99785.72;5114912;28;20014;-75
2022/05/15 11:04:54;;;;;;;;;;;;;;;25.36;16.79;99785.81;5114863;28;19971;-75
2022/05/15 11:07:28;;;;;;;;;;;;;;;25.36;16.78;99785.00;5115044;28;20333;-74
2022/05/15 11:10:11;;;;;;;;;;;;;;;25.35;16.72;99783.38;5115145;28;19927;-74
2022/05/15 11:12:42;;;;;;;;;;;;;;;25.39;16.89;99778.91;5095007;28;19916;-74
2022/05/15 11:15:12;;;;;;;;;;;;;;;25.38;16.58;99788.25;5094594;28;19916;-75
2022/05/15 11:17:46;;;;;;;;;;;;;;;25.26;16.65;99773.13;5075364;28;20008;-74
2022/05/15 11:20:17;;;;;;;;;;;;;;;25.35;16.62;99786.91;5094255;28;20011;-75
2022/05/15 11:22:44;;;;;;;;;;;;;;;25.36;16.88;99795.94;5076206;28;20405;-75
2022/05/15 11:25:15;;;;;;;;;;;;;;;25.41;16.91;99795.84;5093891;28;20441;-74
2022/05/15 11:27:48;;;;;;;;;;;;;;;25.44;16.68;99803.44;5094460;28;20282;-74
2022/05/15 11:30:16;;;;;;;;;;;;;;;25.43;16.80;99813.56;5094417;28;19923;-75
2022/05/15 11:32:44;;;;;;;;;;;;;;;25.43;16.54;99821.78;5076461;28;19916;-75
2022/05/15 11:35:22;;;;;;;;;;;;;;;25.45;16.80;99818.75;5094276;28;19970;-75
2022/05/15 11:37:56;;;;;;;;;;;;;;;25.39;16.89;99828.97;5095145;28;19920;-74
2022/05/15 11:40:29;;;;;;;;;;;;;;;25.43;16.89;99818.25;5093941;28;19923;-74
2022/05/15 11:42:54;;;;;;;;;;;;;;;25.41;16.85;99823.22;5094102;28;19982;-74
2022/05/15 11:45:29;;;;;;;;;;;;;;;25.37;16.86;99822.16;5093885;28;20359;-76
2022/05/15 11:48:02;;;;;;;;;;;;;;;25.38;16.77;99815.59;5094084;28;19916;-74
2022/05/15 11:51:03;;;;;;;;;;;;;;;25.38;16.76;99818.31;5076033;28;20014;-74
2022/05/15 11:53:51;;;;;;;;;;;;;;;25.38;16.76;99827.34;5031752;28;19925;-74
2022/05/15 11:56:16;;;;;;;;;;;;;;;25.34;16.54;99858.34;5021259;28;19917;-75
2022/05/15 11:58:41;;;;;;;;;;;;;;;25.35;16.93;99855.28;5031528;28;20327;-75
2022/05/15 12:01:25;;;;;;;;;;;;;;;25.36;17.09;99850.66;5031486;28;19925;-76
2022/05/15 12:03:57;;;;;;;;;;;;;;;25.34;17.36;99863.81;5031546;28;19933;-76
2022/05/15 12:06:26;;;;;;;;;;;;;;;25.33;17.51;99857.50;5034699;28;19978;-74
2022/05/15 12:09:12;;;;;;;;;;;;;;;25.33;17.59;99860.25;5051436;28;20019;-74
2022/05/15 12:11:37;;;;;;;;;;;;;;;25.33;17.59;99851.25;4953322;29;19926;-74
2022/05/15 12:14:23;;;;;;;;;;;;;;;25.31;17.96;99854.25;4964365;28;19934;-74
2022/05/15 12:16:53;;;;;;;;;;;;;;;25.31;18.22;99848.81;4915214;29;19925;-74
2022/05/15 12:19:20;;;;;;;;;;;;;;;25.29;18.17;99857.28;4915817;29;19986;-76
2022/05/15 12:21:48;;;;;;;;;;;;;;;25.30;18.56;99848.00;4915142;29;19926;-75
2022/05/15 12:24:28;;;;;;;;;;;;;;;25.30;18.55;99850.72;4915192;29;19970;-74
2022/05/15 12:27:12;;;;;;;;;;;;;;;25.29;18.73;99851.81;4920172;29;19980;-74
2022/05/15 12:29:40;;;;;;;;;;;;;;;25.28;18.75;99874.84;4935887;29;19918;-74
2022/05/15 12:32:13;;;;;;;;;;;;;;;25.28;18.77;99880.31;4937882;29;19957;-76
2022/05/15 12:34:45;;;;;;;;;;;;;;;25.29;18.77;99881.09;4937619;29;19923;-73
2022/05/15 12:37:11;;;;;;;;;;;;;;;25.29;18.43;99875.63;4937768;29;19923;-73
2022/05/15 12:39:37;;;;;;;;;;;;;;;25.27;18.74;99873.19;4937608;29;19919;-75
2022/05/15 12:42:06;;;;;;;;;;;;;;;25.28;18.51;99872.09;4937765;29;20398;-73
2022/05/15 12:44:32;;;;;;;;;;;;;;;25.29;18.60;99867.44;4937688;29;20377;-75
2022/05/15 12:46:59;;;;;;;;;;;;;;;25.27;18.66;99856.78;4937649;29;19923;-76
2022/05/15 12:49:27;;;;;;;;;;;;;;;25.29;18.62;99862.78;4999147;28;19972;-74
2022/05/15 12:51:52;;;;;;;;;;;;;;;25.26;18.49;99863.34;5014769;28;19928;-74
2022/05/15 12:54:22;;;;;;;;;;;;;;;25.27;18.51;99853.25;5083875;28;19920;-75
2022/05/15 12:56:56;;;;;;;;;;;;;;;25.26;18.67;99860.63;5117555;28;19923;-74
2022/05/15 12:59:22;;;;;;;;;;;;;;;25.25;18.70;99872.69;5117361;28;19916;-74
2022/05/15 13:01:47;;;;;;;;;;;;;;;25.26;18.68;99877.03;5098967;28;19915;-74
2022/05/15 13:04:16;;;;;;;;;;;;;;;25.26;18.54;99882.50;5117281;28;20060;-75
2022/05/15 13:06:46;;;;;;;;;;;;;;;25.24;18.61;99889.38;5098900;28;19916;-73
2022/05/15 13:09:17;;;;;;;;;;;;;;;25.24;18.55;99887.44;5099614;28;19923;-75